Time;durP1;ratioP1;P1;durP2;ratioP2;P2;SDS_P1;SDS_P2;PMS_P1;PMS_P2;Temp;Humidity;BMP_temperature;BMP_pressure;BME280_temperature;BME280_humidity;BME280_pressure;Samples;Min_cycle;Max_cycle;Signal;HPM_P1;HPM_P2
2021/10/24 00:00:37;;;;;;;10.65;6.97;;;11.80;99.90;;;;;;5085986;28;20230;-65
2021/10/24 00:03:04;;;;;;;7.45;5.28;;;11.80;99.90;;;;;;5100578;27;20233;-65
2021/10/24 00:05:31;;;;;;;14.32;8.15;;;11.80;99.90;;;;;;5092553;28;20223;-66
2021/10/24 00:07:58;;;;;;;7.78;5.35;;;11.80;99.90;;;;;;5090006;28;20222;-66
2021/10/24 00:10:25;;;;;;;7.63;5.28;;;11.80;99.90;;;;;;5090229;27;20226;-67
2021/10/24 00:12:52;;;;;;;7.25;5.25;;;11.80;99.90;;;;;;5090491;27;20220;-66
2021/10/24 00:15:21;;;;;;;9.70;6.18;;;11.80;99.90;;;;;;5083547;28;20215;-66
2021/10/24 00:17:48;;;;;;;10.68;6.45;;;11.80;99.90;;;;;;5092261;27;20703;-66
2021/10/24 00:20:15;;;;;;;9.20;7.88;;;11.80;99.90;;;;;;5092084;28;20237;-66
2021/10/24 00:22:42;;;;;;;9.98;6.93;;;11.80;99.90;;;;;;5082249;28;20222;-66
2021/10/24 00:25:10;;;;;;;9.25;6.28;;;11.80;99.90;;;;;;5091776;28;20600;-66
2021/10/24 00:27:37;;;;;;;9.63;7.30;;;11.80;99.90;;;;;;5099514;27;20221;-65
2021/10/24 00:30:05;;;;;;;9.65;5.15;;;11.80;99.90;;;;;;5103933;27;20250;-65
2021/10/24 00:32:34;;;;;;;11.00;6.43;;;11.80;99.90;;;;;;5099597;27;20735;-65
2021/10/24 00:35:01;;;;;;;11.15;8.57;;;11.80;99.90;;;;;;5085629;28;20211;-65
2021/10/24 00:37:28;;;;;;;9.30;6.78;;;11.80;99.90;;;;;;5087993;28;20227;-65
2021/10/24 00:39:55;;;;;;;8.45;5.45;;;11.80;99.90;;;;;;5079771;28;20306;-65
2021/10/24 00:42:22;;;;;;;7.57;4.80;;;11.80;99.90;;;;;;5107220;27;20233;-65
2021/10/24 00:44:49;;;;;;;9.32;6.55;;;11.80;99.90;;;;;;5106953;27;20219;-65
2021/10/24 00:47:16;;;;;;;12.45;5.50;;;11.80;99.90;;;;;;5091083;28;20238;-65
2021/10/24 00:49:44;;;;;;;7.40;5.53;;;11.80;99.90;;;;;;5087439;28;20233;-65
2021/10/24 00:52:12;;;;;;;12.68;8.50;;;11.80;99.90;;;;;;5091840;27;20236;-65
2021/10/24 00:54:40;;;;;;;12.40;8.48;;;11.80;99.90;;;;;;5097530;27;20246;-65
2021/10/24 00:57:07;;;;;;;10.77;7.65;;;11.80;99.90;;;;;;5095706;27;20720;-66
2021/10/24 00:59:34;;;;;;;16.05;11.50;;;11.80;99.90;;;;;;5101023;27;20242;-66
2021/10/24 01:02:01;;;;;;;7.03;5.53;;;11.80;99.90;;;;;;5089043;28;20216;-66
2021/10/24 01:04:28;;;;;;;7.05;4.95;;;11.80;99.90;;;;;;5088893;28;20222;-66
2021/10/24 01:07:02;;;;;;;9.30;5.40;;;11.80;99.90;;;;;;5088606;28;20223;-66
2021/10/24 01:09:31;;;;;;;8.27;5.43;;;11.80;99.90;;;;;;5103106;27;20295;-65
2021/10/24 01:11:58;;;;;;;11.75;6.70;;;11.80;99.90;;;;;;5095472;27;20320;-65
2021/10/24 01:14:26;;;;;;;9.57;6.40;;;11.80;99.90;;;;;;5103713;27;20224;-66
2021/10/24 01:16:53;;;;;;;11.35;6.13;;;11.80;99.90;;;;;;5104839;27;20218;-65
2021/10/24 01:19:22;;;;;;;7.20;5.95;;;11.80;99.90;;;;;;5104548;27;21088;-65
2021/10/24 01:21:50;;;;;;;11.43;5.85;;;11.80;99.90;;;;;;5091786;28;20235;-65
2021/10/24 01:24:17;;;;;;;8.20;5.40;;;11.80;99.90;;;;;;5092452;28;20239;-65
2021/10/24 01:26:44;;;;;;;5.97;4.95;;;11.80;99.90;;;;;;5085120;28;20220;-66
2021/10/24 01:29:13;;;;;;;8.38;6.20;;;11.70;99.90;;;;;;5103782;27;20242;-66
2021/10/24 01:31:40;;;;;;;9.77;7.82;;;11.70;99.90;;;;;;5100553;27;20701;-66
2021/10/24 01:34:08;;;;;;;7.28;6.22;;;11.70;99.90;;;;;;5103412;27;20233;-66
2021/10/24 01:36:35;;;;;;;10.52;7.93;;;11.70;99.90;;;;;;5106850;27;20225;-66
2021/10/24 01:39:04;;;;;;;10.73;6.47;;;11.70;99.90;;;;;;5102284;27;20812;-66
2021/10/24 01:41:31;;;;;;;11.68;8.25;;;11.70;99.90;;;;;;5110463;27;20590;-66
2021/10/24 01:43:59;;;;;;;9.52;7.68;;;11.70;99.90;;;;;;5105915;27;20228;-66
2021/10/24 01:46:26;;;;;;;12.43;8.15;;;11.60;99.90;;;;;;5113351;27;20227;-66
2021/10/24 01:48:53;;;;;;;8.45;6.75;;;11.60;99.90;;;;;;5101754;28;20233;-66
2021/10/24 01:51:22;;;;;;;13.77;9.18;;;11.60;99.90;;;;;;5106482;27;20588;-66
2021/10/24 01:53:49;;;;;;;10.02;7.80;;;11.60;99.90;;;;;;5109409;27;20223;-65
2021/10/24 01:56:17;;;;;;;10.13;8.80;;;11.60;99.90;;;;;;5106592;27;20240;-66
2021/10/24 01:58:45;;;;;;;11.50;7.47;;;11.50;99.90;;;;;;5101820;27;20232;-66
2021/10/24 02:01:12;;;;;;;9.77;6.10;;;11.50;99.90;;;;;;5105683;27;20237;-66
2021/10/24 02:03:39;;;;;;;10.65;8.32;;;11.50;99.90;;;;;;5108761;27;20226;-66
2021/10/24 02:06:06;;;;;;;8.25;7.32;;;11.40;99.90;;;;;;5113676;27;20241;-66
2021/10/24 02:08:34;;;;;;;7.70;6.63;;;11.40;99.90;;;;;;5108527;27;20222;-66
2021/10/24 02:11:01;;;;;;;10.02;8.00;;;11.40;99.90;;;;;;5099537;27;20226;-65
2021/10/24 02:13:30;;;;;;;10.93;6.10;;;11.40;99.90;;;;;;5113376;27;20229;-66
2021/10/24 02:15:57;;;;;;;8.15;6.40;;;11.30;99.90;;;;;;5100736;27;20256;-66
2021/10/24 02:18:24;;;;;;;8.90;6.85;;;11.40;99.90;;;;;;5110926;27;20226;-66
2021/10/24 02:20:51;;;;;;;7.00;6.35;;;11.30;99.90;;;;;;5089008;28;20233;-66
2021/10/24 02:23:18;;;;;;;11.88;7.97;;;11.30;99.90;;;;;;5098600;27;20229;-66
2021/10/24 02:25:45;;;;;;;8.70;7.80;;;11.30;99.90;;;;;;5096952;28;20233;-66
2021/10/24 02:28:11;;;;;;;8.43;7.22;;;11.30;99.90;;;;;;5090354;27;20565;-66
2021/10/24 02:30:40;;;;;;;8.55;7.35;;;11.30;99.90;;;;;;5092487;28;20233;-66
2021/10/24 02:33:07;;;;;;;10.00;6.85;;;11.30;99.90;;;;;;5107834;27;20232;-66
2021/10/24 02:35:36;;;;;;;13.02;7.45;;;11.30;99.90;;;;;;5101824;27;20214;-66
2021/10/24 02:38:03;;;;;;;10.75;8.18;;;11.30;99.90;;;;;;5109994;28;20561;-66
2021/10/24 02:40:30;;;;;;;21.23;14.32;;;11.30;99.90;;;;;;5099053;27;20227;-66
2021/10/24 02:42:57;;;;;;;11.20;7.90;;;11.30;99.90;;;;;;5086714;28;20557;-66
2021/10/24 02:45:24;;;;;;;8.27;6.95;;;11.30;99.90;;;;;;5079783;28;20723;-66
2021/10/24 02:47:52;;;;;;;12.25;8.85;;;11.30;99.90;;;;;;5105242;27;20232;-65
2021/10/24 02:50:23;;;;;;;8.18;6.40;;;11.20;99.90;;;;;;5110862;27;20614;-66
2021/10/24 02:52:50;;;;;;;7.35;5.80;;;11.20;99.90;;;;;;5098895;27;20221;-66
2021/10/24 02:55:17;;;;;;;11.50;8.65;;;11.20;99.90;;;;;;5100574;27;20224;-66
2021/10/24 02:57:45;;;;;;;12.52;8.18;;;11.20;99.90;;;;;;5108778;27;20227;-66
2021/10/24 03:00:13;;;;;;;10.20;8.52;;;11.20;99.90;;;;;;5104049;27;20236;-66
2021/10/24 03:02:40;;;;;;;10.38;7.05;;;11.20;99.90;;;;;;5102289;27;20223;-66
2021/10/24 03:05:10;;;;;;;10.18;7.18;;;11.20;99.90;;;;;;5110296;27;20233;-66
2021/10/24 03:07:37;;;;;;;8.95;6.30;;;11.20;99.90;;;;;;5113888;27;20224;-66
2021/10/24 03:10:09;;;;;;;8.50;5.80;;;11.20;99.90;;;;;;5099413;27;20697;-66
2021/10/24 03:12:36;;;;;;;9.80;6.50;;;11.20;99.90;;;;;;5113599;27;20556;-66
2021/10/24 03:15:03;;;;;;;9.05;5.97;;;11.20;99.90;;;;;;5105731;27;20605;-66
2021/10/24 03:17:30;;;;;;;10.88;7.72;;;11.20;99.90;;;;;;5099648;28;20943;-66
2021/10/24 03:19:57;;;;;;;9.32;5.70;;;11.20;99.90;;;;;;5106284;27;20236;-66
2021/10/24 03:22:25;;;;;;;12.05;6.85;;;11.20;99.90;;;;;;5106470;27;20223;-66
2021/10/24 03:24:52;;;;;;;11.75;6.43;;;11.20;99.90;;;;;;5100864;27;20233;-66
2021/10/24 03:27:19;;;;;;;8.00;6.40;;;11.20;99.90;;;;;;5099435;27;20244;-66
2021/10/24 03:29:46;;;;;;;14.73;8.75;;;11.20;99.90;;;;;;5110837;27;20704;-66
2021/10/24 03:32:13;;;;;;;12.20;9.70;;;11.20;99.90;;;;;;5111190;27;20226;-66
2021/10/24 03:34:40;;;;;;;12.60;8.90;;;11.20;99.90;;;;;;5102071;27;20571;-66
2021/10/24 03:37:07;;;;;;;11.45;7.53;;;11.20;99.90;;;;;;5110006;27;20540;-66
2021/10/24 03:39:36;;;;;;;15.65;8.43;;;11.20;99.90;;;;;;5100377;27;20224;-66
2021/10/24 03:42:03;;;;;;;8.98;6.00;;;11.20;99.90;;;;;;5106560;27;20232;-66
2021/10/24 03:44:30;;;;;;;9.77;6.22;;;11.10;99.90;;;;;;5097468;27;20224;-66
2021/10/24 03:46:57;;;;;;;6.63;5.65;;;11.10;99.90;;;;;;5103800;27;20221;-66
2021/10/24 03:49:24;;;;;;;8.90;6.75;;;11.10;99.90;;;;;;5112674;27;20663;-66
2021/10/24 03:51:51;;;;;;;11.20;5.85;;;11.10;99.90;;;;;;5103939;27;20231;-65
2021/10/24 03:54:18;;;;;;;8.82;6.32;;;11.10;99.90;;;;;;5103638;27;20239;-66
2021/10/24 03:56:46;;;;;;;6.35;4.65;;;11.10;99.90;;;;;;5103215;27;20222;-65
2021/10/24 03:59:13;;;;;;;12.48;7.63;;;11.10;99.90;;;;;;5110467;27;20545;-65
2021/10/24 04:01:40;;;;;;;12.70;7.22;;;11.10;99.90;;;;;;5099292;27;20227;-66
2021/10/24 04:04:07;;;;;;;9.68;6.30;;;11.10;99.90;;;;;;5107757;27;20224;-66
2021/10/24 04:06:34;;;;;;;13.02;7.00;;;11.10;99.90;;;;;;5111812;27;20788;-65
2021/10/24 04:09:01;;;;;;;10.75;5.90;;;11.00;99.90;;;;;;5102507;27;20218;-65
2021/10/24 04:11:28;;;;;;;16.02;9.43;;;11.00;99.90;;;;;;5108965;27;20231;-65
2021/10/24 04:13:56;;;;;;;9.32;7.15;;;11.10;99.90;;;;;;5107920;27;20599;-66
2021/10/24 04:16:23;;;;;;;9.80;6.78;;;11.10;99.90;;;;;;5106760;27;20616;-65
2021/10/24 04:18:54;;;;;;;8.77;7.80;;;11.10;99.90;;;;;;5108082;27;20675;-66
2021/10/24 04:21:21;;;;;;;9.50;6.78;;;11.10;99.90;;;;;;5105636;27;20225;-65
2021/10/24 04:23:48;;;;;;;7.45;6.20;;;11.10;99.90;;;;;;5113733;27;20620;-66
2021/10/24 04:26:15;;;;;;;9.02;6.15;;;11.00;99.90;;;;;;5115819;27;20680;-65
2021/10/24 04:28:42;;;;;;;6.63;5.20;;;11.00;99.90;;;;;;5107239;27;20228;-65
2021/10/24 04:31:12;;;;;;;7.50;5.35;;;11.00;99.90;;;;;;5116147;27;20225;-65
2021/10/24 04:36:19;;;;;;;8.65;5.43;;;11.00;99.90;;;;;;5104628;27;20219;-66
2021/10/24 04:38:48;;;;;;;6.15;5.55;;;11.00;99.90;;;;;;5116506;27;20226;-66
2021/10/24 04:41:15;;;;;;;7.97;5.63;;;11.00;99.90;;;;;;5108004;27;20244;-66
2021/10/24 04:43:42;;;;;;;9.50;6.57;;;11.00;99.90;;;;;;5109765;27;20233;-66
2021/10/24 04:46:11;;;;;;;7.93;6.55;;;11.00;99.90;;;;;;5105021;27;20233;-66
2021/10/24 04:48:38;;;;;;;8.77;5.15;;;11.10;99.90;;;;;;5112412;27;20216;-66
2021/10/24 04:51:05;;;;;;;10.10;5.80;;;11.00;99.90;;;;;;5107974;27;20393;-66
2021/10/24 04:53:35;;;;;;;10.10;5.22;;;11.10;99.90;;;;;;5112874;27;20252;-66
2021/10/24 04:56:02;;;;;;;6.43;4.78;;;11.00;99.90;;;;;;5104450;27;20211;-65
2021/10/24 04:58:29;;;;;;;10.35;6.15;;;11.00;99.90;;;;;;5112143;27;20281;-65
2021/10/24 05:00:57;;;;;;;10.65;7.97;;;11.00;99.90;;;;;;5109170;28;20231;-65
2021/10/24 05:03:25;;;;;;;7.93;5.55;;;11.00;99.90;;;;;;5108788;27;20230;-66
2021/10/24 05:05:52;;;;;;;10.55;7.03;;;11.00;99.90;;;;;;5116119;27;20235;-66
2021/10/24 05:08:19;;;;;;;10.73;7.60;;;10.90;99.90;;;;;;5110347;27;20241;-66
2021/10/24 05:10:46;;;;;;;10.48;6.55;;;10.90;99.90;;;;;;5108091;27;20235;-66
2021/10/24 05:13:15;;;;;;;6.85;6.20;;;10.90;99.90;;;;;;5110311;27;20223;-66
2021/10/24 05:15:51;;;;;;;8.82;6.38;;;10.90;99.90;;;;;;5091205;28;20215;-66
2021/10/24 05:18:18;;;;;;;8.95;6.47;;;10.80;99.90;;;;;;5102747;27;20235;-66
2021/10/24 05:20:46;;;;;;;12.60;9.00;;;10.80;99.90;;;;;;5096968;28;20236;-66
2021/10/24 05:23:13;;;;;;;15.10;9.52;;;10.80;99.90;;;;;;5093078;28;20292;-66
2021/10/24 05:25:40;;;;;;;13.35;9.23;;;10.80;99.90;;;;;;5093471;28;20242;-65
2021/10/24 05:28:07;;;;;;;10.52;5.30;;;10.80;99.90;;;;;;5083245;28;20677;-66
2021/10/24 05:30:34;;;;;;;7.60;6.18;;;10.70;99.90;;;;;;5092821;28;20232;-65
2021/10/24 05:33:01;;;;;;;8.15;5.85;;;10.70;99.90;;;;;;5086427;28;20577;-65
2021/10/24 05:35:28;;;;;;;7.38;4.85;;;10.70;99.90;;;;;;5100779;27;20224;-66
2021/10/24 05:37:56;;;;;;;12.25;7.03;;;10.60;99.90;;;;;;5087960;28;20292;-65
2021/10/24 05:40:23;;;;;;;6.65;5.53;;;10.60;99.90;;;;;;5094209;28;20228;-65
2021/10/24 05:42:50;;;;;;;15.50;7.18;;;10.60;99.90;;;;;;5093737;28;20697;-66
2021/10/24 05:45:18;;;;;;;10.85;6.70;;;10.50;99.90;;;;;;5094196;28;20309;-65
2021/10/24 05:47:45;;;;;;;7.25;5.07;;;10.50;99.90;;;;;;5106183;27;20221;-65
2021/10/24 05:50:12;;;;;;;7.53;5.55;;;10.50;99.90;;;;;;5114390;27;20224;-66
2021/10/24 05:52:39;;;;;;;6.72;6.07;;;10.40;99.90;;;;;;5089882;27;20226;-66
2021/10/24 05:55:08;;;;;;;7.97;5.00;;;10.40;99.90;;;;;;5094508;28;20287;-66
2021/10/24 05:57:35;;;;;;;9.90;6.03;;;10.30;99.90;;;;;;5104918;27;20227;-66
2021/10/24 06:00:02;;;;;;;8.15;5.72;;;10.30;99.90;;;;;;5115101;27;20227;-66
2021/10/24 06:02:29;;;;;;;10.05;6.35;;;10.20;99.90;;;;;;5114965;27;20227;-66
2021/10/24 06:04:57;;;;;;;9.25;7.57;;;10.20;99.90;;;;;;5115180;27;20234;-67
2021/10/24 06:07:24;;;;;;;10.82;6.85;;;10.20;99.90;;;;;;5114795;27;20234;-66
2021/10/24 06:09:54;;;;;;;12.82;5.95;;;10.20;99.90;;;;;;5115158;27;20219;-66
2021/10/24 06:12:43;;;;;;;7.18;5.80;;;10.20;99.90;;;;;;5115104;27;20247;-67
2021/10/24 06:15:12;;;;;;;7.28;6.05;;;10.20;99.90;;;;;;5114890;27;20229;-64
2021/10/24 06:17:39;;;;;;;8.25;5.85;;;10.10;99.90;;;;;;5115334;27;20673;-65
2021/10/24 06:20:07;;;;;;;6.18;5.57;;;10.10;99.90;;;;;;5114627;27;20234;-65
2021/10/24 06:22:34;;;;;;;9.23;5.30;;;10.10;99.90;;;;;;5114849;27;20233;-65
2021/10/24 06:25:01;;;;;;;8.40;6.65;;;10.10;99.90;;;;;;5114952;27;20219;-66
2021/10/24 06:27:30;;;;;;;7.80;7.00;;;10.00;99.90;;;;;;5114326;27;20227;-66
2021/10/24 06:29:57;;;;;;;9.05;7.32;;;10.00;99.90;;;;;;5114766;27;20565;-65
2021/10/24 06:32:24;;;;;;;8.07;6.40;;;10.00;99.90;;;;;;5114383;27;20689;-65
2021/10/24 06:34:51;;;;;;;10.05;5.93;;;10.00;99.90;;;;;;5114723;27;20228;-66
2021/10/24 06:37:19;;;;;;;9.95;6.80;;;10.00;99.90;;;;;;5114145;27;20704;-65
2021/10/24 06:39:47;;;;;;;7.22;6.07;;;10.00;99.90;;;;;;5113194;27;20252;-66
2021/10/24 06:42:14;;;;;;;9.38;6.55;;;10.10;99.90;;;;;;5113910;27;20222;-67
2021/10/24 06:44:42;;;;;;;11.32;5.82;;;10.00;99.90;;;;;;5099699;28;20608;-65
2021/10/24 06:47:09;;;;;;;10.82;6.72;;;10.10;99.90;;;;;;5108517;27;20579;-66
2021/10/24 06:49:36;;;;;;;6.60;6.07;;;10.10;99.90;;;;;;5114301;27;20230;-65
2021/10/24 06:52:05;;;;;;;9.40;6.45;;;10.10;99.90;;;;;;5114337;27;20226;-66
2021/10/24 06:54:33;;;;;;;10.43;6.55;;;10.10;99.90;;;;;;5114040;27;20725;-66
2021/10/24 06:57:00;;;;;;;8.95;6.40;;;10.10;99.90;;;;;;5114109;27;20697;-66
2021/10/24 06:59:27;;;;;;;11.27;7.22;;;10.10;99.90;;;;;;5113504;27;20238;-66
2021/10/24 07:01:55;;;;;;;8.43;5.75;;;10.10;99.90;;;;;;5114301;27;20227;-66
2021/10/24 07:04:22;;;;;;;9.15;7.03;;;10.10;99.90;;;;;;5113652;27;20223;-66
2021/10/24 07:06:49;;;;;;;7.57;6.00;;;10.10;99.90;;;;;;5113887;27;20223;-66
2021/10/24 07:09:16;;;;;;;12.65;7.10;;;10.20;99.90;;;;;;5113632;27;20234;-66
2021/10/24 07:11:43;;;;;;;14.48;7.68;;;10.20;99.90;;;;;;5114094;27;20223;-64
2021/10/24 07:14:10;;;;;;;9.32;8.40;;;10.20;99.90;;;;;;5113543;27;20238;-66
2021/10/24 07:16:37;;;;;;;9.90;8.00;;;10.20;99.90;;;;;;5114098;27;20237;-66
2021/10/24 07:19:07;;;;;;;10.43;8.55;;;10.20;99.90;;;;;;5113804;27;20220;-66
2021/10/24 07:21:34;;;;;;;6.25;5.65;;;10.20;99.90;;;;;;5113744;27;20207;-65
2021/10/24 07:24:01;;;;;;;8.10;7.30;;;10.30;99.90;;;;;;5113663;27;20219;-65
2021/10/24 07:26:28;;;;;;;8.75;7.35;;;10.30;99.90;;;;;;5113282;27;20226;-66
2021/10/24 07:28:54;;;;;;;9.95;7.30;;;10.30;99.90;;;;;;5113740;27;20222;-65
2021/10/24 07:31:21;;;;;;;8.98;6.20;;;10.30;99.90;;;;;;5113206;27;20546;-66
2021/10/24 07:33:48;;;;;;;10.02;6.72;;;10.30;99.90;;;;;;5113654;27;20676;-66
2021/10/24 07:36:17;;;;;;;10.80;7.70;;;10.30;99.90;;;;;;5113287;27;20218;-66
2021/10/24 07:38:43;;;;;;;11.25;7.78;;;10.40;99.90;;;;;;5113391;27;20605;-66
2021/10/24 07:41:10;;;;;;;8.82;7.65;;;10.40;99.90;;;;;;5113144;27;20243;-65
2021/10/24 07:43:39;;;;;;;7.43;6.72;;;10.40;99.90;;;;;;5113409;27;20230;-66
2021/10/24 07:46:06;;;;;;;9.68;7.38;;;10.50;99.90;;;;;;5113298;27;20224;-66
2021/10/24 07:48:33;;;;;;;9.32;6.80;;;10.50;99.90;;;;;;5113019;27;20664;-66
2021/10/24 07:51:01;;;;;;;14.68;8.07;;;10.50;99.90;;;;;;5113089;27;20565;-66
2021/10/24 07:53:30;;;;;;;9.45;7.80;;;10.50;99.90;;;;;;5112597;27;20227;-66
2021/10/24 07:55:57;;;;;;;11.35;9.60;;;10.50;99.90;;;;;;5113282;27;20218;-64
2021/10/24 07:58:25;;;;;;;8.75;7.57;;;10.50;99.90;;;;;;5112853;27;20313;-66
2021/10/24 08:00:52;;;;;;;13.30;7.20;;;10.60;99.90;;;;;;5113111;27;20220;-66
2021/10/24 08:03:21;;;;;;;9.23;8.30;;;10.60;99.90;;;;;;5112707;27;20282;-65
2021/10/24 08:05:48;;;;;;;9.57;6.53;;;10.70;99.90;;;;;;5113223;27;20245;-66
2021/10/24 08:08:15;;;;;;;9.38;6.80;;;10.70;99.90;;;;;;5112632;27;20224;-65
2021/10/24 08:10:44;;;;;;;12.95;8.45;;;10.80;99.90;;;;;;5113035;27;20690;-65
2021/10/24 08:13:11;;;;;;;10.18;7.78;;;10.90;99.90;;;;;;5113153;27;20227;-65
2021/10/24 08:15:38;;;;;;;8.63;7.50;;;10.90;99.90;;;;;;5112733;27;20232;-66
2021/10/24 08:18:05;;;;;;;9.73;6.65;;;11.00;99.90;;;;;;5113035;27;20239;-65
2021/10/24 08:20:32;;;;;;;6.68;5.75;;;11.00;99.90;;;;;;5112550;27;20232;-66
2021/10/24 08:22:59;;;;;;;10.00;6.93;;;11.10;99.90;;;;;;5113151;27;20212;-66
2021/10/24 08:25:27;;;;;;;9.77;7.57;;;11.10;99.90;;;;;;5112589;27;20224;-66
2021/10/24 08:27:59;;;;;;;7.57;6.40;;;11.10;99.90;;;;;;5113028;27;20707;-66
2021/10/24 08:30:27;;;;;;;7.50;6.80;;;11.20;99.90;;;;;;5112359;27;20238;-66
2021/10/24 08:32:54;;;;;;;10.80;6.63;;;11.20;99.90;;;;;;5113008;27;20221;-65
2021/10/24 08:35:22;;;;;;;7.30;5.88;;;11.30;99.90;;;;;;5112538;27;20308;-66
2021/10/24 08:37:49;;;;;;;9.00;6.38;;;11.30;99.90;;;;;;5112909;27;20225;-66
2021/10/24 08:40:16;;;;;;;7.15;5.65;;;11.40;99.90;;;;;;5112307;27;20231;-66
2021/10/24 08:42:51;;;;;;;7.70;5.90;;;11.40;99.90;;;;;;5112932;27;20222;-66
2021/10/24 08:45:23;;;;;;;8.93;5.75;;;11.50;99.90;;;;;;5112247;27;20230;-67
2021/10/24 08:47:52;;;;;;;8.45;5.95;;;11.50;99.90;;;;;;5112672;27;20272;-66
2021/10/24 08:50:21;;;;;;;8.93;6.00;;;11.50;99.90;;;;;;5112259;27;20252;-66
2021/10/24 08:52:52;;;;;;;7.72;6.25;;;11.60;99.90;;;;;;5112744;27;20690;-66
2021/10/24 08:55:19;;;;;;;7.95;5.15;;;11.60;99.90;;;;;;5112385;27;20229;-66
2021/10/24 08:57:48;;;;;;;33.35;20.52;;;11.70;99.90;;;;;;5112857;27;20237;-66
2021/10/24 09:00:15;;;;;;;11.80;9.60;;;11.70;99.90;;;;;;5112343;27;20234;-65
2021/10/24 09:02:55;;;;;;;13.88;7.15;;;11.80;99.90;;;;;;5112475;27;20559;-66
2021/10/24 09:05:30;;;;;;;13.55;8.13;;;11.80;99.90;;;;;;5116136;27;20250;-66
2021/10/24 09:07:57;;;;;;;9.95;5.85;;;11.90;99.90;;;;;;5116515;27;20224;-66
2021/10/24 09:10:40;;;;;;;8.60;5.50;;;11.90;99.90;;;;;;5115857;27;20233;-66
2021/10/24 09:13:08;;;;;;;8.70;5.68;;;12.00;99.90;;;;;;5116286;27;20225;-66
2021/10/24 09:15:51;;;;;;;11.10;7.70;;;12.00;99.90;;;;;;5115926;27;20227;-66
2021/10/24 09:18:22;;;;;;;6.78;6.18;;;12.10;99.90;;;;;;5116259;27;20680;-66
2021/10/24 09:20:49;;;;;;;8.73;6.05;;;12.20;99.90;;;;;;5115923;27;20242;-66
2021/10/24 09:23:16;;;;;;;6.95;6.28;;;12.20;99.70;;;;;;5116029;27;20611;-66
2021/10/24 09:25:55;;;;;;;8.70;5.10;;;12.30;99.60;;;;;;5115691;27;20283;-66
2021/10/24 09:28:24;;;;;;;9.25;5.15;;;12.40;99.60;;;;;;5116008;27;20229;-66
2021/10/24 09:31:03;;;;;;;6.75;4.70;;;12.40;99.30;;;;;;5115881;27;20218;-66
2021/10/24 09:33:45;;;;;;;9.68;5.55;;;12.50;99.30;;;;;;5115613;27;20249;-66
2021/10/24 09:36:13;;;;;;;9.40;5.47;;;12.60;99.10;;;;;;5115813;27;20222;-65
2021/10/24 09:38:43;;;;;;;6.97;5.15;;;12.60;99.00;;;;;;5115228;27;20580;-66
2021/10/24 09:41:10;;;;;;;8.70;4.60;;;12.60;99.00;;;;;;5115620;27;20219;-65
2021/10/24 09:43:37;;;;;;;6.68;4.50;;;12.60;99.10;;;;;;5115005;27;20214;-66
2021/10/24 09:46:13;;;;;;;6.20;4.32;;;12.70;99.10;;;;;;5115548;27;20222;-66
2021/10/24 09:48:44;;;;;;;8.23;6.32;;;12.80;99.20;;;;;;5115139;27;20295;-65
2021/10/24 09:51:16;;;;;;;8.52;5.32;;;12.80;99.10;;;;;;5093139;28;20693;-66
2021/10/24 09:53:45;;;;;;;4.32;3.90;;;12.90;99.10;;;;;;5074331;28;20546;-66
2021/10/24 09:56:14;;;;;;;5.93;4.45;;;13.00;99.10;;;;;;5074730;28;20230;-66
2021/10/24 09:58:43;;;;;;;5.80;4.50;;;13.10;99.20;;;;;;5091343;28;20713;-66
2021/10/24 10:01:11;;;;;;;5.50;4.72;;;13.00;98.60;;;;;;5094886;28;20692;-66
2021/10/24 10:03:39;;;;;;;7.72;4.65;;;13.10;98.60;;;;;;5094395;28;20323;-65
2021/10/24 10:06:06;;;;;;;4.43;3.70;;;13.10;98.80;;;;;;5094891;28;20227;-65
2021/10/24 10:08:37;;;;;;;11.45;5.35;;;13.20;98.40;;;;;;5094288;28;20257;-65
2021/10/24 10:11:08;;;;;;;8.95;6.60;;;13.20;98.10;;;;;;5094847;28;20288;-65
2021/10/24 10:13:38;;;;;;;6.40;5.75;;;13.20;98.20;;;;;;5094281;28;20238;-65
2021/10/24 10:16:08;;;;;;;10.70;8.15;;;13.30;98.30;;;;;;5094789;28;20238;-65
2021/10/24 10:19:03;;;;;;;4.90;4.35;;;13.40;98.10;;;;;;5094188;28;20223;-66
2021/10/24 10:21:32;;;;;;;6.50;4.30;;;13.40;97.90;;;;;;5094157;28;20241;-67
2021/10/24 10:24:01;;;;;;;5.85;4.07;;;13.40;97.90;;;;;;5094472;28;20219;-65
2021/10/24 10:26:33;;;;;;;6.90;3.95;;;13.50;97.70;;;;;;5094566;28;20253;-65
2021/10/24 10:29:00;;;;;;;12.68;8.60;;;13.50;97.40;;;;;;5105874;27;20235;-65
2021/10/24 10:31:27;;;;;;;10.23;6.80;;;13.50;97.40;;;;;;5114865;27;20230;-66
2021/10/24 10:33:59;;;;;;;11.80;6.13;;;13.50;97.60;;;;;;5114460;27;20219;-65
2021/10/24 10:37:01;;;;;;;7.30;4.18;;;13.50;96.70;;;;;;5114563;27;20222;-65
2021/10/24 10:39:44;;;;;;;7.10;3.10;;;13.60;96.50;;;;;;5094036;28;20316;-65
2021/10/24 10:42:48;;;;;;;9.32;3.67;;;13.60;96.20;;;;;;5093922;28;20302;-65
2021/10/24 10:45:38;;;;;;;6.18;3.00;;;13.60;96.20;;;;;;5077007;28;20223;-64
2021/10/24 10:48:07;;;;;;;5.43;3.70;;;13.70;96.50;;;;;;5093354;28;20223;-65
2021/10/24 10:50:48;;;;;;;4.18;3.30;;;13.70;96.50;;;;;;5094119;28;20569;-65
2021/10/24 10:53:40;;;;;;;5.85;3.38;;;13.80;96.50;;;;;;5103843;28;20255;-66
2021/10/24 10:56:24;;;;;;;8.50;3.92;;;13.80;96.40;;;;;;5113779;27;20681;-65
2021/10/24 10:58:52;;;;;;;6.15;4.35;;;13.80;96.30;;;;;;5114247;27;20219;-65
2021/10/24 11:01:31;;;;;;;8.07;3.53;;;13.80;96.40;;;;;;5113632;27;20242;-65
2021/10/24 11:04:00;;;;;;;5.33;3.07;;;13.90;96.40;;;;;;5113841;27;20478;-65
2021/10/24 11:06:59;;;;;;;11.23;3.63;;;13.90;95.90;;;;;;5114066;27;20460;-66
2021/10/24 11:09:46;;;;;;;5.88;3.00;;;13.90;95.40;;;;;;5093118;28;20219;-65
2021/10/24 11:12:47;;;;;;;5.07;2.40;;;13.90;95.20;;;;;;5093251;28;20231;-66
2021/10/24 11:15:19;;;;;;;4.88;2.95;;;13.90;95.10;;;;;;5093176;28;20231;-65
2021/10/24 11:17:48;;;;;;;3.60;2.50;;;13.90;94.80;;;;;;5093438;28;20211;-67
2021/10/24 11:20:18;;;;;;;4.07;3.07;;;13.90;94.70;;;;;;5093189;28;20465;-66
2021/10/24 11:22:46;;;;;;;5.85;2.50;;;13.90;94.60;;;;;;5093427;28;20469;-65
2021/10/24 11:25:28;;;;;;;3.80;3.10;;;13.90;94.60;;;;;;5092815;28;20242;-65
2021/10/24 11:27:57;;;;;;;4.77;2.90;;;14.00;94.70;;;;;;5088578;28;20534;-66
2021/10/24 11:30:25;;;;;;;4.70;2.80;;;14.00;94.50;;;;;;5092886;28;20785;-65
2021/10/24 11:32:55;;;;;;;4.25;2.25;;;14.00;94.00;;;;;;5093168;28;20219;-65
2021/10/24 11:35:24;;;;;;;6.70;2.47;;;14.10;94.20;;;;;;5092777;28;20238;-65
2021/10/24 11:37:53;;;;;;;2.45;2.05;;;14.00;93.20;;;;;;5093317;28;20220;-65
2021/10/24 11:40:22;;;;;;;3.30;2.47;;;14.00;93.40;;;;;;5092446;28;20231;-66
2021/10/24 11:42:57;;;;;;;5.13;2.30;;;14.00;93.10;;;;;;5101749;27;20223;-66
2021/10/24 11:45:26;;;;;;;3.92;2.88;;;14.00;93.10;;;;;;5092812;28;20473;-66
2021/10/24 11:47:58;;;;;;;7.40;3.47;;;14.00;93.20;;;;;;5093007;28;20227;-66
2021/10/24 11:50:41;;;;;;;6.05;4.53;;;14.10;93.40;;;;;;5092401;28;20481;-66
2021/10/24 11:53:09;;;;;;;7.30;4.90;;;14.10;93.40;;;;;;5101789;27;20222;-65
2021/10/24 11:55:36;;;;;;;3.00;2.63;;;14.20;93.60;;;;;;5113521;27;20233;-66
2021/10/24 11:58:22;;;;;;;3.45;2.60;;;14.20;93.60;;;;;;5113219;27;20460;-66
2021/10/24 12:00:50;;;;;;;3.97;2.47;;;14.30;93.70;;;;;;5112851;27;20233;-66
2021/10/24 12:03:28;;;;;;;4.07;3.70;;;14.30;93.60;;;;;;5113210;27;20460;-66
2021/10/24 12:05:56;;;;;;;7.23;2.93;;;14.30;93.50;;;;;;5112796;27;20533;-66
2021/10/24 12:08:43;;;;;;;9.53;2.50;;;14.30;93.60;;;;;;5113114;27;20472;-66
2021/10/24 12:11:13;;;;;;;4.70;2.47;;;14.40;93.00;;;;;;5112824;27;20528;-65
2021/10/24 12:13:41;;;;;;;2.23;2.03;;;14.30;92.40;;;;;;5112954;27;21027;-66
2021/10/24 12:19:30;;;;;;;5.03;2.70;;;14.30;91.50;;;;;;5046352;27;1440154;-65
2021/10/24 12:22:00;;;;;;;3.85;2.13;;;14.20;91.50;;;;;;5051295;28;20222;-65
2021/10/24 12:24:31;;;;;;;4.47;2.03;;;14.20;91.40;;;;;;5110410;28;20233;-64
2021/10/24 12:27:08;;;;;;;4.10;2.93;;;14.20;91.40;;;;;;5109972;28;20227;-65
2021/10/24 12:29:35;;;;;;;4.35;2.80;;;14.20;91.60;;;;;;5110326;28;20495;-64
2021/10/24 12:32:09;;;;;;;3.17;1.83;;;14.30;91.50;;;;;;5109785;28;20230;-65
2021/10/24 12:34:37;;;;;;;3.55;2.38;;;14.30;91.00;;;;;;5110228;28;20249;-65
2021/10/24 12:37:16;;;;;;;1.80;1.60;;;14.30;90.90;;;;;;5109671;28;20226;-65
2021/10/24 12:39:43;;;;;;;2.17;1.97;;;14.30;91.00;;;;;;5110137;28;20587;-66
2021/10/24 12:42:19;;;;;;;7.47;2.23;;;14.30;91.20;;;;;;5109449;28;20465;-66
2021/10/24 12:44:46;;;;;;;2.10;1.60;;;14.40;91.30;;;;;;5109899;28;20820;-66
2021/10/24 12:47:16;;;;;;;4.10;2.63;;;14.50;91.40;;;;;;5109637;28;20461;-65
2021/10/24 12:49:56;;;;;;;6.57;2.70;;;14.40;91.00;;;;;;5109822;28;21000;-66
2021/10/24 12:52:23;;;;;;;4.20;2.53;;;14.40;90.90;;;;;;5109561;28;20460;-66
2021/10/24 12:54:59;;;;;;;2.20;1.47;;;14.40;90.40;;;;;;5110005;28;20541;-66
2021/10/24 12:57:27;;;;;;;4.70;1.67;;;14.30;90.40;;;;;;5109468;28;20483;-65
2021/10/24 12:59:54;;;;;;;4.23;1.90;;;14.30;90.40;;;;;;5109762;28;20547;-65